Latest Coastal Weather Observations for St Lawrence

IDQ60701

Issued at 2:52 pm EST Monday 1 March 2021 (issued every 10 minutes, with the page automatically refreshed every 10 minutes)

About coastal observations | Map of coastal stations | Coastal observations for QLD | Marine services | Other Formats
Station Details ID: 033210 Name: ST LAWRENCE Lat: -22.35 Lon: 149.52 Height: 9.19 m
Data from the previous 72 hours. | See also: Recent months at St Lawrence
Date/Time
EST
Wind Sea
Height
m
Swell Vis
km
Cloud Weather Temp
°C
Press
MSL
hPa
Rain since
9am
mm
Dir  Spd
kts
Gust
kts
Height
m
Period
s
Dir
01/02:30pm NE 6 11 - - - - - - - 30.1 1005.6 0.0
01/02:00pm NNE 8 12 - - - - - - - 30.3 1006.0 0.0
01/01:30pm ENE 6 10 - - - - - - - 30.1 1006.2 0.0
01/01:00pm ESE 7 11 - - - - - - - 30.1 1006.6 0.0
01/12:30pm ESE 6 10 - - - - - - - 29.8 1006.9 0.0
01/12:00pm E 6 12 - - - - - - - 28.9 1007.1 0.0
01/11:30am E 6 13 - - - - - - - 28.5 1007.7 0.0
01/11:00am ESE 8 13 - - - - - - - 28.2 1007.8 0.0
01/10:30am SE 6 9 - - - - - - - 27.7 1008.2 0.0
01/10:00am SSE 6 9 - - - - - - - 27.4 1008.4 0.0
01/09:30am SE 5 8 - - - - - - - 26.8 1008.6 0.0
01/09:00am SSE 5 7 - - - - - - - 26.2 1008.4 0.0
01/08:30am SSE 4 7 - - - - - - - 25.6 1008.4 0.0
01/08:00am SSE 4 6 - - - - - - - 25.1 1008.0 0.0
01/07:30am SSE 5 7 - - - - - - - 24.9 1007.5 0.0
01/07:00am SSE 5 8 - - - - - - - 24.9 1007.2 0.0
01/06:30am S 5 7 - - - - - - - 24.7 1006.9 0.0
01/06:00am S 5 7 - - - - - - - 24.7 1006.4 0.0
01/05:30am S 5 6 - - - - - - - 24.5 1006.0 0.0
01/05:00am SSE 5 8 - - - - - - - 24.4 1005.7 0.0
01/04:30am SSE 5 7 - - - - - - - 24.2 1005.6 0.0
01/04:00am S 5 6 - - - - - - - 23.8 1005.6 0.0
01/03:30am S 5 7 - - - - - - - 23.9 1005.4 0.0
01/03:00am SSE 4 4 - - - - - - - 24.1 1005.4 0.0
01/02:30am SSE 4 5 - - - - - - - 24.3 1005.7 0.0
01/02:00am SSE 5 6 - - - - - - - 24.7 1006.2 0.0
01/01:30am S 5 6 - - - - - - - 24.9 1006.6 0.0
01/01:00am S 5 6 - - - - - - - 24.7 1007.0 0.0
01/12:30am S 5 6 - - - - - - - 24.7 1007.4 0.0
01/12:00am S 4 5 - - - - - - - 24.8 1007.6 0.0
 
Date/Time
EST
Wind Sea
Height
m
Swell Vis
km
Cloud Weather Temp
°C
Press
MSL
hPa
Rain since
9am
mm
Dir  Spd
kts
Gust
kts
Height
m
Period
s
Dir
28/11:30pm CALM 0 4 - - - - - - - 24.9 1007.7 0.0
28/11:00pm CALM 0 0 - - - - - - - 25.1 1007.8 0.0
28/10:30pm CALM 0 0 - - - - - - - 25.7 1008.0 0.0
28/10:00pm ESE 4 5 - - - - - - - 26.0 1008.0 0.0
28/09:30pm SE 3 6 - - - - - - - 25.9 1008.0 0.0
28/09:00pm SSE 4 5 - - - - - - - 25.5 1008.0 0.0
28/08:30pm SE 4 7 - - - - - - - 27.0 1007.9 0.0
28/08:00pm ENE 7 11 - - - - - - - 27.2 1007.6 0.0
28/07:30pm ENE 3 7 - - - - - - - 26.6 1007.3 0.0
28/07:00pm W 5 7 - - - - - - - 25.4 1007.4 0.0
28/06:30pm WSW 1 4 - - - - - - - 26.1 1007.1 0.0
28/06:00pm SW 3 4 - - - - - - - 26.0 1007.0 0.0
28/05:30pm CALM 0 3 - - - - - - - 26.0 1006.5 0.0
28/05:00pm SSW 8 12 - - - - - - - 26.2 1006.4 0.0
28/04:30pm N 7 10 - - - - - - - 29.6 1006.2 0.0
28/04:00pm N 7 9 - - - - - - - 29.6 1006.1 0.0
28/03:30pm N 7 9 - - - - - - - 29.6 1006.1 0.0
28/03:00pm N 8 11 - - - - - - - 29.6 1006.5 0.0
28/02:30pm N 8 11 - - - - - - - 30.1 1006.8 0.0
28/02:00pm N 8 11 - - - - - - - 29.9 1006.9 0.0
28/01:30pm N 9 12 - - - - - - - 30.2 1007.2 0.0
28/01:00pm N 9 15 - - - - - - - 30.7 1007.5 0.0
28/12:30pm NNE 9 13 - - - - - - - 31.1 1007.9 0.0
28/12:00pm NNE 9 12 - - - - - - - 30.8 1008.2 0.0
28/11:30am NNE 11 16 - - - - - - - 30.9 1008.3 0.0
28/11:00am NE 10 16 - - - - - - - 31.8 1008.7 0.0
28/10:30am ENE 10 16 - - - - - - - 30.6 1009.1 0.0
28/10:00am E 9 14 - - - - - - - 30.9 1009.1 0.0
28/09:30am ENE 7 12 - - - - - - - 30.5 1009.0 0.0
28/09:00am E 7 11 - - - - - - - 29.3 1009.1 0.2
28/08:30am SE 6 11 - - - - - - - 28.2 1009.0 0.2
28/08:00am SE 8 13 - - - - - - - 28.0 1008.7 0.2
28/07:30am SSE 7 9 - - - - - - - 26.6 1008.4 0.2
28/07:00am S 6 7 - - - - - - - 25.5 1008.2 0.2
28/06:30am S 5 6 - - - - - - - 25.0 1008.0 0.2
28/06:00am SSE 5 7 - - - - - - - 24.9 1007.8 0.2
28/05:30am S 6 9 - - - - - - - 24.9 1007.4 0.2
28/05:00am S 5 7 - - - - - - - 25.0 1007.2 0.2
28/04:30am S 6 8 - - - - - - - 25.0 1007.0 0.2
28/04:00am S 6 9 - - - - - - - 25.2 1007.1 0.2
28/03:30am S 5 8 - - - - - - - 25.2 1007.3 0.2
28/03:00am S 5 7 - - - - - - - 25.2 1007.5 0.2
28/02:30am S 4 8 - - - - - - - 25.3 1007.7 0.2
28/02:00am S 5 7 - - - - - - - 25.7 1008.0 0.2
28/01:30am SSE 4 6 - - - - - - - 26.2 1008.3 0.2
28/01:00am SE 3 5 - - - - - - - 26.2 1008.5 0.2
28/12:30am SSE 4 5 - - - - - - - 26.4 1008.7 0.2
28/12:00am SE 3 4 - - - - - - - 26.6 1009.0 0.2
 
Date/Time
EST
Wind Sea
Height
m
Swell Vis
km
Cloud Weather Temp
°C
Press
MSL
hPa
Rain since
9am
mm
Dir  Spd
kts
Gust
kts
Height
m
Period
s
Dir
27/11:30pm ESE 4 7 - - - - - - - 26.8 1009.2 0.2
27/11:00pm E 5 7 - - - - - - - 27.0 1009.4 0.2
27/10:30pm E 6 7 - - - - - - - 27.2 1009.3 0.2
27/10:00pm E 5 9 - - - - - - - 27.2 1009.3 0.2
27/09:30pm E 4 7 - - - - - - - 27.1 1009.1 0.2
27/09:00pm ENE 4 6 - - - - - - - 27.3 1008.9 0.2
27/08:30pm NE 5 8 - - - - - - - 27.5 1008.6 0.2
27/08:00pm NNE 5 7 - - - - - - - 27.6 1008.4 0.2
27/07:30pm NNE 7 11 - - - - - - - 28.1 1008.1 0.0
27/07:00pm NE 7 11 - - - - - - - 28.5 1007.7 0.0
27/06:30pm NNE 7 11 - - - - - - - 28.8 1007.5 0.0
27/06:00pm N 9 13 - - - - - - - 29.0 1007.2 0.0
27/05:30pm N 8 10 - - - - - - - 29.1 1006.8 0.0
27/05:00pm N 9 13 - - - - - - - 29.2 1006.7 0.0
27/04:30pm N 9 13 - - - - - - - 29.2 1006.6 0.0
27/04:00pm N 12 18 - - - - - - - 29.5 1006.5 0.0
27/03:30pm N 12 16 - - - - - - - 30.3 1006.3 0.0
27/03:00pm N 12 16 - - - - - - - 31.5 1006.4 0.0
27/02:30pm N 11 15 - - - - - - - 31.5 1006.4 0.0
27/02:00pm N 10 15 - - - - - - - 31.3 1006.8 0.0
27/01:30pm N 9 13 - - - - - - - 31.9 1007.0 0.0
27/01:00pm N 10 15 - - - - - - - 31.3 1007.5 0.0
27/12:30pm N 11 16 - - - - - - - 31.3 1007.8 0.0
27/12:00pm N 11 15 - - - - - - - 31.1 1008.2 0.0
27/11:30am NE 9 14 - - - - - - - 31.2 1008.8 0.0
27/11:00am NNE 9 14 - - - - - - - 31.4 1009.2 0.0
27/10:30am NNE 9 13 - - - - - - - 30.9 1009.5 0.0
27/10:00am ENE 8 12 - - - - - - - 30.8 1009.7 0.0
27/09:30am ENE 10 14 - - - - - - - 30.1 1009.9 0.0
27/09:00am E 8 16 - - - - - - - 29.5 1009.9 0.0
27/08:30am E 7 13 - - - - - - - 28.4 1009.5 0.0
27/08:00am SE 7 11 - - - - - - - 28.1 1009.1 0.0
27/07:30am SSE 5 8 - - - - - - - 26.6 1008.9 0.0
27/07:00am S 5 7 - - - - - - - 25.3 1008.7 0.0
27/06:30am S 5 7 - - - - - - - 24.9 1008.4 0.0
27/06:00am S 4 6 - - - - - - - 24.7 1008.1 0.0
27/05:30am S 4 5 - - - - - - - 24.6 1007.6 0.0
27/05:00am S 4 5 - - - - - - - 24.8 1007.4 0.0
27/04:30am S 5 6 - - - - - - - 24.9 1007.0 0.0
27/04:00am SSE 4 5 - - - - - - - 25.0 1006.9 0.0
27/03:30am S 4 5 - - - - - - - 25.3 1007.1 0.0
27/03:00am SSE 3 5 - - - - - - - 25.7 1007.1 0.0
27/02:30am SE 3 5 - - - - - - - 26.0 1007.2 0.0
27/02:00am SE 4 5 - - - - - - - 25.9 1007.3 0.0
27/01:30am SE 4 5 - - - - - - - 25.7 1007.7 0.0
27/01:00am SSE 4 5 - - - - - - - 25.9 1007.9 0.0
27/12:30am ESE 3 4 - - - - - - - 26.2 1008.4 0.0
27/12:00am ENE 2 4 - - - - - - - 26.4 1009.0 0.0
 
Date/Time
EST
Wind Sea
Height
m
Swell Vis
km
Cloud Weather Temp
°C
Press
MSL
hPa
Rain since
9am
mm
Dir  Spd
kts
Gust
kts
Height
m
Period
s
Dir
26/11:30pm ENE 3 5 - - - - - - - 26.5 1009.4 0.0
26/11:00pm ENE 3 5 - - - - - - - 26.5 1009.8 0.0
26/10:30pm ENE 3 5 - - - - - - - 26.8 1009.8 0.0
26/10:00pm NE 4 7 - - - - - - - 27.2 1009.9 0.0
26/09:30pm NE 5 8 - - - - - - - 27.3 1009.5 0.0
26/09:00pm NE 5 9 - - - - - - - 27.4 1009.4 0.0
26/08:30pm NE 6 9 - - - - - - - 27.6 1009.3 0.0
26/08:00pm NE 7 11 - - - - - - - 27.8 1009.1 0.0
26/07:30pm NNE 6 9 - - - - - - - 27.7 1008.8 0.0
26/07:00pm NNE 6 11 - - - - - - - 27.9 1008.4 0.0
26/06:30pm NNE 6 9 - - - - - - - 28.1 1008.0 0.0
26/06:00pm N 7 11 - - - - - - - 28.4 1007.6 0.0
26/05:30pm N 7 10 - - - - - - - 28.7 1007.3 0.0
26/05:00pm N 8 11 - - - - - - - 28.7 1007.2 0.0
26/04:30pm N 8 11 - - - - - - - 29.0 1007.0 0.0
26/04:00pm N 8 11 - - - - - - - 29.2 1007.0 0.0
26/03:30pm N 10 13 - - - - - - - 29.5 1006.9 0.0
26/03:00pm N 10 14 - - - - - - - 29.5 1006.9 0.0

Other formats

Comma delimited format used in spreadsheet applications
http://www.bom.gov.au/fwo/IDQ60701/IDQ60701.95369.axf

JavaScript Object Notation format (JSON) in row-major order
http://www.bom.gov.au/fwo/IDQ60701/IDQ60701.95369.json

Data quality

Most of these data are generated automatically and are frequently updated. Quality checks on data are not normally performed. It is possible for incorrect values to appear. Refer to information at About Latest Weather Observations and please check the disclaimer before using these data.